createdAt,value
2023-04-26T00:02:23.071Z,99583.06
2023-04-26T00:04:56.043Z,99573.34
2023-04-26T00:07:24.884Z,99574.84
2023-04-26T00:09:53.280Z,99572.31
2023-04-26T00:12:22.218Z,99577.53
2023-04-26T00:14:51.604Z,99566.88
2023-04-26T00:17:19.490Z,99569.81
2023-04-26T00:19:47.400Z,99568.38
2023-04-26T00:22:15.371Z,99568.09
2023-04-26T00:24:43.475Z,99571.00
2023-04-26T00:27:11.418Z,99562.94
2023-04-26T00:29:39.367Z,99568.31
2023-04-26T00:32:08.927Z,99571.00
2023-04-26T00:34:38.007Z,99564.16
2023-04-26T00:37:06.707Z,99568.72
2023-04-26T00:39:35.505Z,99560.66
2023-04-26T00:42:03.459Z,99565.69
2023-04-26T00:44:31.427Z,99569.03
2023-04-26T00:46:59.546Z,99561.72
2023-04-26T00:49:29.564Z,99559.19
2023-04-26T00:51:57.579Z,99563.03
2023-04-26T00:54:26.264Z,99555.81
2023-04-26T00:56:54.233Z,99560.31
2023-04-26T00:59:22.325Z,99555.44
2023-04-26T01:01:50.660Z,99549.44
2023-04-26T01:04:19.340Z,99547.97
2023-04-26T01:06:48.967Z,99554.47
2023-04-26T01:09:17.047Z,99557.63
2023-04-26T01:11:45.491Z,99550.50
2023-04-26T01:14:13.842Z,99547.41
2023-04-26T01:16:42.128Z,99555.56
2023-04-26T01:19:11.019Z,99566.13
2023-04-26T01:21:39.049Z,99561.47
2023-04-26T01:24:10.489Z,99557.94
2023-04-26T01:26:44.070Z,99557.19
2023-04-26T01:29:16.259Z,99559.88
2023-04-26T01:31:44.759Z,99556.34
2023-04-26T01:34:12.957Z,99557.94
2023-04-26T01:36:41.302Z,99562.53
2023-04-26T01:39:10.606Z,99545.84
2023-04-26T01:41:38.655Z,99540.78
2023-04-26T01:44:06.840Z,99549.56
2023-04-26T01:46:34.857Z,99547.34
2023-04-26T01:49:02.890Z,99538.03
2023-04-26T01:51:30.813Z,99540.84
2023-04-26T01:53:58.721Z,99541.56
2023-04-26T01:56:28.064Z,99544.56
2023-04-26T01:58:56.510Z,99542.50
2023-04-26T02:01:24.540Z,99532.44
2023-04-26T02:03:53.197Z,99538.25
2023-04-26T02:06:21.367Z,99527.16
2023-04-26T02:08:49.640Z,99517.75
2023-04-26T02:11:17.728Z,99530.25
2023-04-26T02:13:47.029Z,99531.72
2023-04-26T02:16:16.192Z,99529.84
2023-04-26T02:18:44.514Z,99516.25
2023-04-26T02:21:13.039Z,99527.53
2023-04-26T02:23:41.222Z,99524.47
2023-04-26T02:26:09.218Z,99519.06
2023-04-26T02:28:37.336Z,99526.34
2023-04-26T02:31:06.943Z,99521.38
2023-04-26T02:33:35.000Z,99517.91
2023-04-26T02:36:04.378Z,99527.19
2023-04-26T02:38:32.305Z,99516.47
2023-04-26T02:41:00.597Z,99526.72
2023-04-26T02:43:29.162Z,99532.75
2023-04-26T02:45:58.766Z,99524.06
2023-04-26T02:48:28.151Z,99528.53
2023-04-26T02:50:58.042Z,99533.06
2023-04-26T02:53:25.983Z,99531.72
2023-04-26T02:55:53.915Z,99526.63
2023-04-26T02:58:22.148Z,99528.47
2023-04-26T03:00:50.156Z,99521.22
2023-04-26T03:03:18.260Z,99528.91
2023-04-26T03:05:47.939Z,99519.38
2023-04-26T03:08:15.974Z,99522.41
2023-04-26T03:10:45.691Z,99529.34
2023-04-26T03:13:13.671Z,99502.22
2023-04-26T03:15:45.796Z,99524.56
2023-04-26T03:18:13.748Z,99526.00
2023-04-26T03:20:43.190Z,99527.25
2023-04-26T03:23:12.468Z,99527.06
2023-04-26T03:25:40.566Z,99535.22
2023-04-26T03:28:08.503Z,99530.38
2023-04-26T03:30:36.408Z,99534.72
2023-04-26T03:33:04.548Z,99539.78
2023-04-26T03:35:32.512Z,99532.19
2023-04-26T03:38:00.408Z,99545.97
2023-04-26T03:40:29.969Z,99541.31
2023-04-26T03:42:57.972Z,99542.06
2023-04-26T03:45:26.926Z,99540.09
2023-04-26T03:47:55.077Z,99557.38
2023-04-26T03:50:23.160Z,99555.59
2023-04-26T03:52:51.139Z,99562.59
2023-04-26T03:55:19.074Z,99568.63
2023-04-26T03:57:48.364Z,99571.31
2023-04-26T04:00:16.808Z,99573.06
2023-04-26T04:02:45.102Z,99566.94
2023-04-26T04:05:13.256Z,99576.81
2023-04-26T04:07:41.337Z,99581.34
2023-04-26T04:10:10.727Z,99587.25
2023-04-26T04:12:38.771Z,99577.56
2023-04-26T04:15:09.435Z,99575.66
2023-04-26T04:17:38.670Z,99599.75
2023-04-26T04:20:08.825Z,99603.53
2023-04-26T04:22:36.753Z,99595.38
2023-04-26T04:25:06.004Z,99602.75
2023-04-26T04:27:34.003Z,99606.31
2023-04-26T04:30:03.690Z,99608.22
2023-04-26T04:32:34.128Z,99600.97
2023-04-26T04:35:02.176Z,99607.84
2023-04-26T04:37:30.089Z,99612.34
2023-04-26T04:39:58.031Z,99608.66
2023-04-26T04:42:27.356Z,99607.56
2023-04-26T04:44:56.163Z,99612.13
2023-04-26T04:47:24.382Z,99613.72
2023-04-26T04:49:53.933Z,99615.72
2023-04-26T04:52:22.035Z,99621.63
2023-04-26T04:54:49.972Z,99613.13
2023-04-26T04:57:18.943Z,99618.34
2023-04-26T04:59:46.870Z,99610.72
2023-04-26T05:02:14.944Z,99629.50
2023-04-26T05:04:43.130Z,99619.91
2023-04-26T05:07:12.982Z,99618.06
2023-04-26T05:09:40.906Z,99623.84
2023-04-26T05:12:09.027Z,99627.41
2023-04-26T05:14:36.934Z,99635.94
2023-04-26T05:17:04.835Z,99634.09
2023-04-26T05:19:32.730Z,99629.19
2023-04-26T05:22:00.619Z,99618.50
2023-04-26T05:24:32.244Z,99619.47
2023-04-26T05:27:00.245Z,99609.34
2023-04-26T05:29:31.146Z,99601.56
2023-04-26T05:31:59.122Z,99601.88
2023-04-26T05:34:27.051Z,99581.97
2023-04-26T05:36:54.970Z,99575.63
2023-04-26T05:39:23.129Z,99575.97
2023-04-26T05:41:52.450Z,99586.16
2023-04-26T05:44:20.390Z,99595.66
2023-04-26T05:46:48.452Z,99590.31
2023-04-26T05:49:16.345Z,99596.88
2023-04-26T05:51:44.448Z,99594.69
2023-04-26T05:54:12.399Z,99594.94
2023-04-26T05:56:40.379Z,99598.25
2023-04-26T05:59:09.792Z,99598.00
2023-04-26T06:01:37.738Z,99595.38
2023-04-26T06:04:07.186Z,99596.47
2023-04-26T06:06:35.942Z,99590.13
2023-04-26T06:09:04.615Z,99596.19
2023-04-26T06:11:32.520Z,99598.88
2023-04-26T06:14:00.413Z,99596.16
2023-04-26T06:16:29.704Z,99596.72
2023-04-26T06:18:57.611Z,99585.34
2023-04-26T06:21:26.491Z,99591.47
2023-04-26T06:23:54.658Z,99593.75
2023-04-26T06:26:22.768Z,99586.41
2023-04-26T06:28:50.805Z,99591.13
2023-04-26T06:31:19.987Z,99586.69
2023-04-26T06:33:49.826Z,99588.91
2023-04-26T06:36:18.159Z,99597.63
2023-04-26T06:38:46.076Z,99596.19
2023-04-26T06:41:13.966Z,99585.94
2023-04-26T06:43:41.914Z,99596.53
2023-04-26T06:46:09.859Z,99596.16
2023-04-26T06:48:37.780Z,99595.06
2023-04-26T06:51:10.318Z,99593.22
2023-04-26T06:53:38.571Z,99590.50
2023-04-26T06:56:06.956Z,99598.72
2023-04-26T06:58:34.863Z,99608.81
2023-04-26T07:01:03.723Z,99599.63
2023-04-26T07:03:32.586Z,99602.97
2023-04-26T07:06:00.734Z,99599.38
2023-04-26T07:08:30.033Z,99601.34
2023-04-26T07:10:59.211Z,99603.63
2023-04-26T07:13:27.157Z,99608.84
2023-04-26T07:15:55.324Z,99600.69
2023-04-26T07:18:23.247Z,99603.94
2023-04-26T07:20:51.151Z,99611.84
2023-04-26T07:23:19.090Z,99599.66
2023-04-26T07:25:48.350Z,99595.72
2023-04-26T07:28:16.311Z,99607.41
2023-04-26T07:30:45.358Z,99602.28
2023-04-26T07:33:13.401Z,99608.38
2023-04-26T07:35:41.377Z,99609.81
2023-04-26T07:38:09.822Z,99612.28
2023-04-26T07:40:37.711Z,99608.47
2023-04-26T07:43:07.242Z,99614.66
2023-04-26T07:45:35.193Z,99609.81
2023-04-26T07:48:03.220Z,99609.25
2023-04-26T07:50:31.450Z,99613.63
2023-04-26T07:52:59.399Z,99595.66
2023-04-26T07:55:27.556Z,99613.78
2023-04-26T07:57:55.721Z,99597.53
2023-04-26T08:00:25.782Z,99610.31
2023-04-26T08:02:53.789Z,99616.38
2023-04-26T08:05:22.184Z,99611.94
2023-04-26T08:07:50.246Z,99612.03
2023-04-26T08:10:18.287Z,99618.00
2023-04-26T08:12:46.353Z,99606.75
2023-04-26T08:15:14.449Z,99600.44
2023-04-26T08:17:43.790Z,99619.44
2023-04-26T08:20:13.122Z,99610.97
2023-04-26T08:22:41.053Z,99616.56
2023-04-26T08:25:09.779Z,99606.09
2023-04-26T08:27:37.842Z,99605.19
2023-04-26T08:30:06.796Z,99605.13
2023-04-26T08:32:35.538Z,99606.41
2023-04-26T08:35:05.410Z,99596.72
2023-04-26T08:37:33.379Z,99611.75
2023-04-26T08:40:01.292Z,99599.50
2023-04-26T08:42:30.183Z,99611.81
2023-04-26T08:45:03.492Z,99605.59
2023-04-26T08:47:39.712Z,99605.78
2023-04-26T08:50:12.365Z,99613.78
2023-04-26T08:52:41.141Z,99603.78
2023-04-26T08:55:10.819Z,99596.69
2023-04-26T08:57:40.868Z,99606.41
2023-04-26T09:00:12.494Z,99602.75
2023-04-26T09:02:42.992Z,99601.16
2023-04-26T09:05:13.043Z,99605.94
2023-04-26T09:07:45.751Z,99601.66
2023-04-26T09:10:14.940Z,99604.41
2023-04-26T09:12:42.843Z,99609.16
2023-04-26T09:15:11.653Z,99603.63
2023-04-26T09:17:41.856Z,99597.56
2023-04-26T09:20:22.956Z,99602.41
2023-04-26T09:22:52.196Z,99596.41
2023-04-26T09:25:29.930Z,99604.44
2023-04-26T09:27:58.441Z,99599.25
2023-04-26T09:30:27.129Z,99604.34
2023-04-26T09:32:56.655Z,99604.16
2023-04-26T09:35:32.128Z,99604.22
2023-04-26T09:38:07.993Z,99602.50
2023-04-26T09:40:42.736Z,99604.16
2023-04-26T09:43:12.866Z,99604.88
2023-04-26T09:45:49.563Z,99597.22
2023-04-26T09:48:22.355Z,99585.66
2023-04-26T09:50:53.471Z,99593.94
2023-04-26T09:53:33.548Z,99591.00
2023-04-26T09:56:09.440Z,99585.03
2023-04-26T09:58:39.063Z,99592.16
2023-04-26T10:01:09.497Z,99589.94
2023-04-26T10:03:38.518Z,99590.41
2023-04-26T10:06:08.775Z,99597.34
2023-04-26T10:08:37.406Z,99593.16
2023-04-26T10:11:07.583Z,99594.16
2023-04-26T10:13:36.388Z,99584.66
2023-04-26T10:16:06.833Z,99587.16
2023-04-26T10:18:35.757Z,99584.34
2023-04-26T10:21:11.330Z,99571.13
2023-04-26T10:23:39.788Z,99575.50
2023-04-26T10:26:07.736Z,99571.31
2023-04-26T10:29:03.033Z,99585.59
2023-04-26T10:32:05.290Z,99583.91
2023-04-26T10:34:36.261Z,99579.13
2023-04-26T10:37:13.595Z,99575.22
2023-04-26T10:39:42.561Z,99581.03
2023-04-26T10:42:25.449Z,99585.75
2023-04-26T10:44:54.247Z,99594.41
2023-04-26T10:47:28.223Z,99580.53
2023-04-26T10:50:05.652Z,99598.81
2023-04-26T10:52:36.061Z,99594.72
2023-04-26T10:55:06.261Z,99585.16
2023-04-26T10:57:51.547Z,99572.03
2023-04-26T11:00:31.953Z,99568.91
2023-04-26T11:03:09.434Z,99581.13
2023-04-26T11:05:56.512Z,99579.97
2023-04-26T11:08:30.625Z,99583.16
2023-04-26T11:11:11.237Z,99586.84
2023-04-26T11:13:40.828Z,99578.13
2023-04-26T11:16:10.244Z,99593.34
2023-04-26T11:18:39.986Z,99590.19
2023-04-26T11:21:08.576Z,99586.41
2023-04-26T11:23:37.967Z,99568.50
2023-04-26T11:26:08.355Z,99578.81
2023-04-26T11:28:38.030Z,99578.97
2023-04-26T11:31:07.257Z,99571.22
2023-04-26T11:33:35.253Z,99587.50
2023-04-26T11:36:04.128Z,99584.84
2023-04-26T11:38:32.089Z,99568.31
2023-04-26T11:41:02.765Z,99569.56
2023-04-26T11:43:37.156Z,99573.50
2023-04-26T11:46:05.909Z,99560.94
2023-04-26T11:48:35.766Z,99569.66
2023-04-26T11:51:05.248Z,99577.50
2023-04-26T11:53:39.812Z,99557.44
2023-04-26T11:56:17.384Z,99561.94
2023-04-26T11:58:46.686Z,99570.78
2023-04-26T12:01:22.282Z,99581.00
2023-04-26T12:03:52.230Z,99562.84
2023-04-26T12:06:20.839Z,99572.44
2023-04-26T12:08:52.384Z,99568.44
2023-04-26T12:11:22.100Z,99567.59
2023-04-26T12:13:50.326Z,99553.88
2023-04-26T12:16:26.357Z,99561.19
2023-04-26T12:18:55.456Z,99564.47
2023-04-26T12:21:25.174Z,99565.81
2023-04-26T12:23:53.550Z,99558.94
2023-04-26T12:26:22.863Z,99552.28
2023-04-26T12:28:50.935Z,99553.22
2023-04-26T12:31:18.885Z,99555.88
2023-04-26T12:33:46.857Z,99558.25
2023-04-26T12:36:15.035Z,99554.53
2023-04-26T12:38:42.939Z,99540.63
2023-04-26T12:41:11.442Z,99553.56
2023-04-26T12:43:40.817Z,99548.75
2023-04-26T12:46:08.912Z,99540.22
2023-04-26T12:48:37.239Z,99541.69
2023-04-26T12:51:05.456Z,99548.91
2023-04-26T12:53:33.888Z,99548.63
2023-04-26T12:56:01.944Z,99550.94
2023-04-26T12:58:29.870Z,99550.09
2023-04-26T13:00:59.216Z,99550.50
2023-04-26T13:03:27.502Z,99549.75
2023-04-26T13:05:56.115Z,99542.09
2023-04-26T13:08:24.434Z,99548.06
2023-04-26T13:10:52.426Z,99559.78
2023-04-26T13:13:22.029Z,99556.88
2023-04-26T13:15:54.431Z,99552.50
2023-04-26T13:18:23.813Z,99561.13
2023-04-26T13:20:51.934Z,99563.63
2023-04-26T13:23:19.890Z,99563.34
2023-04-26T13:25:48.035Z,99557.13
2023-04-26T13:28:16.247Z,99567.66
2023-04-26T13:30:44.355Z,99553.44
2023-04-26T13:33:12.295Z,99567.47
2023-04-26T13:35:41.607Z,99562.59
2023-04-26T13:38:09.527Z,99569.22
2023-04-26T13:40:39.026Z,99572.97
2023-04-26T13:43:06.950Z,99569.78
2023-04-26T13:45:36.120Z,99566.47
2023-04-26T13:48:04.102Z,99569.53
2023-04-26T13:50:32.075Z,99558.13
2023-04-26T13:53:01.779Z,99561.19
2023-04-26T13:55:30.801Z,99568.81
2023-04-26T13:57:58.737Z,99569.84
2023-04-26T14:00:27.280Z,99565.31
2023-04-26T14:02:56.222Z,99579.25
2023-04-26T14:05:24.662Z,99563.47
2023-04-26T14:07:54.981Z,99569.81
2023-04-26T14:10:24.666Z,99566.50
2023-04-26T14:12:52.564Z,99570.31
2023-04-26T14:15:20.492Z,99572.34
2023-04-26T14:17:48.790Z,99572.38
2023-04-26T14:20:16.899Z,99575.16
2023-04-26T14:22:44.896Z,99577.59
2023-04-26T14:25:12.816Z,99583.03
2023-04-26T14:27:42.205Z,99576.38
2023-04-26T14:30:10.689Z,99574.84
2023-04-26T14:32:38.732Z,99573.66
2023-04-26T14:35:07.292Z,99579.16
2023-04-26T14:37:35.188Z,99555.78
2023-04-26T14:40:03.193Z,99577.34
2023-04-26T14:42:31.200Z,99570.75
2023-04-26T14:45:01.363Z,99575.69
2023-04-26T14:47:29.433Z,99574.56
2023-04-26T14:49:58.237Z,99584.84
2023-04-26T14:52:29.005Z,99588.00
2023-04-26T14:54:57.376Z,99594.47
2023-04-26T14:57:25.313Z,99590.91
2023-04-26T14:59:53.269Z,99598.19
2023-04-26T15:02:22.668Z,99600.84
2023-04-26T15:04:50.829Z,99640.25
2023-04-26T15:07:31.474Z,99637.69
2023-04-26T15:10:00.681Z,99657.78
2023-04-26T15:12:28.610Z,99666.38
2023-04-26T15:14:56.554Z,99676.38
2023-04-26T15:17:25.866Z,99658.22
2023-04-26T15:19:53.909Z,99670.72
2023-04-26T15:22:21.828Z,99675.94
2023-04-26T15:24:51.124Z,99670.00
2023-04-26T15:27:19.108Z,99676.59
2023-04-26T15:29:47.089Z,99689.69
2023-04-26T15:32:15.019Z,99693.72
2023-04-26T15:34:45.185Z,99694.78
2023-04-26T15:37:13.167Z,99701.38
2023-04-26T15:39:41.197Z,99709.22
2023-04-26T15:42:09.132Z,99702.47
2023-04-26T15:44:37.057Z,99697.63
2023-04-26T15:47:05.033Z,99711.34
2023-04-26T15:49:33.010Z,99703.69
2023-04-26T15:52:02.354Z,99709.28
2023-04-26T15:54:30.243Z,99714.66
2023-04-26T15:56:58.323Z,99714.44
2023-04-26T15:59:26.421Z,99723.69
2023-04-26T16:01:54.417Z,99721.72
2023-04-26T16:04:22.782Z,99726.16
2023-04-26T16:06:50.809Z,99735.13
2023-04-26T16:09:24.704Z,99737.81
2023-04-26T16:11:53.777Z,99743.19
2023-04-26T16:14:21.999Z,99745.03
2023-04-26T16:16:49.942Z,99754.56
2023-04-26T16:19:18.438Z,99751.44
2023-04-26T16:21:47.096Z,99748.78
2023-04-26T16:24:15.027Z,99763.94
2023-04-26T16:26:44.334Z,99774.97
2023-04-26T16:29:12.205Z,99780.25
2023-04-26T16:31:40.627Z,99780.00
2023-04-26T16:34:08.560Z,99785.13
2023-04-26T16:36:36.491Z,99790.53
2023-04-26T16:39:04.488Z,99790.41
2023-04-26T16:41:32.381Z,99807.50
2023-04-26T16:44:01.652Z,99813.38
2023-04-26T16:46:29.610Z,99812.47
2023-04-26T16:48:57.792Z,99824.75
2023-04-26T16:51:25.777Z,99822.31
2023-04-26T16:53:53.656Z,99831.50
2023-04-26T16:56:21.579Z,99837.19
2023-04-26T16:58:49.485Z,99844.63
2023-04-26T17:01:18.802Z,99843.00
2023-04-26T17:03:47.336Z,99850.97
2023-04-26T17:06:15.322Z,99858.44
2023-04-26T17:08:43.235Z,99868.63
2023-04-26T17:11:15.109Z,99873.13
2023-04-26T17:13:43.276Z,99877.63
2023-04-26T17:16:11.508Z,99878.56
2023-04-26T17:18:41.880Z,99872.63
2023-04-26T17:21:10.092Z,99882.97
2023-04-26T17:23:37.992Z,99887.31
2023-04-26T17:26:06.106Z,99899.28
2023-04-26T17:28:34.204Z,99894.16
2023-04-26T17:31:02.352Z,99905.38
2023-04-26T17:33:30.271Z,99902.09
2023-04-26T17:35:59.579Z,99908.16
2023-04-26T17:38:27.550Z,99908.78
2023-04-26T17:40:55.513Z,99917.78
2023-04-26T17:43:23.418Z,99916.66
2023-04-26T17:45:51.370Z,99918.72
2023-04-26T17:48:19.318Z,99920.50
2023-04-26T17:50:47.307Z,99932.34
2023-04-26T17:53:16.642Z,99931.69
2023-04-26T17:55:45.043Z,99941.38
2023-04-26T17:58:12.948Z,99948.13
2023-04-26T18:00:40.846Z,99954.41
2023-04-26T18:03:08.881Z,99964.81
2023-04-26T18:05:36.992Z,99967.53
2023-04-26T18:08:05.362Z,99973.47
2023-04-26T18:10:34.753Z,99973.34
2023-04-26T18:13:02.837Z,99998.59
2023-04-26T18:15:30.889Z,99997.97
2023-04-26T18:17:58.870Z,99999.00
2023-04-26T18:20:27.153Z,100009.31
2023-04-26T18:22:55.065Z,100008.59
2023-04-26T18:25:22.965Z,100002.56
2023-04-26T18:27:52.234Z,100018.09
2023-04-26T18:30:20.461Z,100022.97
2023-04-26T18:32:48.418Z,100030.69
2023-04-26T18:35:16.597Z,100037.06
2023-04-26T18:37:44.518Z,100036.97
2023-04-26T18:40:13.543Z,100046.78
2023-04-26T18:42:42.089Z,100054.38
2023-04-26T18:45:12.482Z,100058.88
2023-04-26T18:47:41.316Z,100063.84
2023-04-26T18:50:09.992Z,100067.41
2023-04-26T18:52:39.707Z,100070.22
2023-04-26T18:55:08.143Z,100069.53
2023-04-26T18:57:36.093Z,100070.88
2023-04-26T19:00:06.563Z,100077.97
2023-04-26T19:02:40.030Z,100076.75
2023-04-26T19:05:09.711Z,100084.44
2023-04-26T19:07:37.883Z,100098.72
2023-04-26T19:10:07.434Z,100090.56
2023-04-26T19:12:35.338Z,100088.38
2023-04-26T19:15:03.254Z,100099.78
2023-04-26T19:17:33.377Z,100101.34
2023-04-26T19:20:07.208Z,100106.38
2023-04-26T19:22:35.081Z,100098.38
2023-04-26T19:25:04.376Z,100115.41
2023-04-26T19:27:32.382Z,100112.06
2023-04-26T19:30:00.436Z,100111.97
2023-04-26T19:32:28.388Z,100106.34
2023-04-26T19:34:56.439Z,100118.50
2023-04-26T19:37:25.775Z,100114.91
2023-04-26T19:39:53.681Z,100130.72
2023-04-26T19:42:21.754Z,100132.75
2023-04-26T19:44:49.669Z,100132.97
2023-04-26T19:47:18.000Z,100150.69
2023-04-26T19:49:45.966Z,100147.28
2023-04-26T19:52:13.839Z,100146.31
2023-04-26T19:54:43.143Z,100139.53
2023-04-26T19:57:11.031Z,100151.81
2023-04-26T19:59:38.969Z,100156.78
2023-04-26T20:02:07.665Z,100169.59
2023-04-26T20:04:35.650Z,100173.34
2023-04-26T20:07:05.034Z,100175.16
2023-04-26T20:09:34.611Z,100166.97
2023-04-26T20:12:04.435Z,100164.91
2023-04-26T20:14:32.357Z,100170.00
2023-04-26T20:17:02.393Z,100179.81
2023-04-26T20:19:30.708Z,100179.47
2023-04-26T20:21:58.599Z,100187.50
2023-04-26T20:24:27.916Z,100196.28
2023-04-26T20:26:56.101Z,100184.91
2023-04-26T20:29:25.727Z,100190.59
2023-04-26T20:31:53.663Z,100196.22
2023-04-26T20:34:21.667Z,100191.91
2023-04-26T20:36:49.572Z,100186.91
2023-04-26T20:39:17.571Z,100191.44
2023-04-26T20:41:45.470Z,100171.84
2023-04-26T20:44:13.392Z,100195.09
2023-04-26T20:46:42.635Z,100200.16
2023-04-26T20:49:10.521Z,100198.53
2023-04-26T20:51:38.428Z,100202.66
2023-04-26T20:54:06.403Z,100203.59
2023-04-26T20:56:34.296Z,100208.75
2023-04-26T20:59:02.210Z,100212.28
2023-04-26T21:01:30.647Z,100212.66
2023-04-26T21:04:00.105Z,100207.50
2023-04-26T21:06:28.329Z,100211.75
2023-04-26T21:08:56.242Z,100212.66
2023-04-26T21:11:24.140Z,100209.69
2023-04-26T21:13:54.140Z,100211.66
2023-04-26T21:16:22.186Z,100222.03
2023-04-26T21:18:50.115Z,100220.06
2023-04-26T21:21:19.604Z,100219.34
2023-04-26T21:23:47.501Z,100221.72
2023-04-26T21:26:15.595Z,100223.59
2023-04-26T21:28:43.522Z,100221.75
2023-04-26T21:31:11.744Z,100228.72
2023-04-26T21:33:39.731Z,100236.09
2023-04-26T21:36:08.206Z,100237.50
2023-04-26T21:38:37.479Z,100228.59
2023-04-26T21:41:05.536Z,100219.34
2023-04-26T21:43:33.438Z,100235.09
2023-04-26T21:46:01.359Z,100234.44
2023-04-26T21:48:29.241Z,100232.38
2023-04-26T21:50:57.169Z,100235.34
2023-04-26T21:53:25.107Z,100240.16
2023-04-26T21:55:55.080Z,100245.06
2023-04-26T21:58:23.577Z,100245.56
2023-04-26T22:00:51.847Z,100254.16
2023-04-26T22:03:20.197Z,100256.38
2023-04-26T22:05:48.172Z,100256.56
2023-04-26T22:08:16.288Z,100266.09
2023-04-26T22:10:44.262Z,100268.69
2023-04-26T22:13:13.541Z,100272.44
2023-04-26T22:15:41.454Z,100273.91
2023-04-26T22:18:09.562Z,100284.47
2023-04-26T22:20:37.469Z,100284.84
2023-04-26T22:23:05.450Z,100295.69
2023-04-26T22:25:33.377Z,100292.63
2023-04-26T22:28:01.330Z,100295.84
2023-04-26T22:30:30.755Z,100291.03
2023-04-26T22:32:59.819Z,100294.03
2023-04-26T22:35:28.866Z,100299.06
2023-04-26T22:37:56.974Z,100301.31
2023-04-26T22:40:24.888Z,100310.25
2023-04-26T22:42:52.866Z,100307.94
2023-04-26T22:45:21.350Z,100307.72
2023-04-26T22:47:51.087Z,100317.81
2023-04-26T22:50:19.360Z,100319.00
2023-04-26T22:52:47.317Z,100316.78
2023-04-26T22:55:15.207Z,100319.44
2023-04-26T22:57:43.080Z,100321.28
2023-04-26T23:00:12.638Z,100327.91
2023-04-26T23:02:40.873Z,100324.41
2023-04-26T23:05:11.454Z,100316.88
2023-04-26T23:07:39.550Z,100322.91
2023-04-26T23:10:08.378Z,100331.81
2023-04-26T23:12:37.093Z,100329.56
2023-04-26T23:15:06.109Z,100319.22
2023-04-26T23:17:34.891Z,100326.47
2023-04-26T23:20:11.633Z,100319.28
2023-04-26T23:22:41.338Z,100327.63
2023-04-26T23:25:10.740Z,100334.47
2023-04-26T23:27:39.116Z,100328.84
2023-04-26T23:30:08.429Z,100330.97
2023-04-26T23:32:36.496Z,100326.94
2023-04-26T23:35:04.615Z,100332.13
2023-04-26T23:37:32.574Z,100322.88
2023-04-26T23:40:01.974Z,100328.56
2023-04-26T23:42:29.874Z,100329.13
2023-04-26T23:44:57.777Z,100329.88
2023-04-26T23:47:25.797Z,100337.56
2023-04-26T23:49:53.735Z,100336.72
2023-04-26T23:52:21.620Z,100345.84
2023-04-26T23:54:49.500Z,100340.06
2023-04-26T23:57:18.827Z,100339.50
2023-04-26T23:59:46.778Z,100345.47
